< < Back
Terminal Aerodrome Forecast


Current Version              Previous Versions:   1  2  3  4  5  6  7  8  9  

Terminal Aerodrome Forecast

969
FTUS42 KILM 291100
TAFILM
TAF
KILM 291128Z 2912/3012 02006KT P6SM BKN090
     FM291400 03012KT P6SM SCT050
     FM292300 VRB02KT P6SM SCT100=



Latest METAR

509
SAUS70 KWBC 292100 RRC
MTRILM
METAR KILM 292053Z AUTO 11008KT 10SM SCT055 SCT075 BKN090 29/20 A2989
RMK AO2 SLP122 T02890200 55004


USA.gov is the U.S. government's official web portal to all federal, state and local government web resources and services.